Time;durP1;ratioP1;P1;durP2;ratioP2;P2;SDS_P1;SDS_P2;PMS_P1;PMS_P2;Temp;Humidity;BMP_temperature;BMP_pressure;BME280_temperature;BME280_humidity;BME280_pressure;Samples;Min_cycle;Max_cycle;Signal;HPM_P1;HPM_P2
2022/06/01 00:00:18;;;;;;;7.60;7.00;;;;;;;11.35;87.41;101316.66;4994270;28;20429;-48
2022/06/01 00:02:46;;;;;;;9.13;8.20;;;;;;;11.33;87.52;101316.03;4995040;28;20525;-46
2022/06/01 00:05:14;;;;;;;7.47;6.97;;;;;;;11.30;87.73;101319.06;4995242;28;20581;-44
2022/06/01 00:07:43;;;;;;;8.30;7.63;;;;;;;11.28;88.53;101312.25;4994489;28;20478;-48
2022/06/01 00:10:11;;;;;;;7.57;7.10;;;;;;;11.30;89.23;101315.56;4995244;28;20434;-44
2022/06/01 00:12:38;;;;;;;7.90;7.30;;;;;;;11.29;89.53;101309.38;4995087;28;20484;-48
2022/06/01 00:15:08;;;;;;;7.20;6.90;;;;;;;11.34;90.24;101308.84;4994972;28;20444;-47
2022/06/01 00:17:35;;;;;;;8.00;7.47;;;;;;;11.35;90.50;101311.31;4994188;28;20474;-48
2022/06/01 00:20:03;;;;;;;8.63;7.77;;;;;;;11.39;91.27;101309.09;4994835;28;20436;-44
2022/06/01 00:22:31;;;;;;;8.10;7.70;;;;;;;11.40;91.36;101316.94;4994601;28;20912;-44
2022/06/01 00:25:00;;;;;;;8.53;8.00;;;;;;;11.43;91.69;101316.56;4994957;28;20812;-45
2022/06/01 00:27:28;;;;;;;9.40;8.70;;;;;;;11.43;91.92;101316.56;4994131;28;20481;-45
2022/06/01 00:29:57;;;;;;;7.20;6.90;;;;;;;11.46;91.89;101312.69;4994767;28;20460;-45
2022/06/01 00:32:25;;;;;;;8.53;8.03;;;;;;;11.48;92.09;101315.97;4994243;28;20480;-48
2022/06/01 00:34:52;;;;;;;8.93;8.33;;;;;;;11.50;92.56;101312.09;4994501;28;20432;-46
2022/06/01 00:37:21;;;;;;;8.47;7.87;;;;;;;11.51;92.18;101312.94;4994105;28;20469;-44
2022/06/01 00:39:48;;;;;;;8.10;7.70;;;;;;;11.54;92.59;101315.22;4994462;28;20928;-46
2022/06/01 00:42:20;;;;;;;8.27;7.70;;;;;;;11.54;92.77;101309.88;4994321;28;20524;-46
2022/06/01 00:44:48;;;;;;;7.67;7.37;;;;;;;11.54;92.59;101304.53;4994540;28;20792;-45
2022/06/01 00:47:17;;;;;;;9.20;8.80;;;;;;;11.54;92.86;101304.53;4993685;28;20474;-47
2022/06/01 00:49:51;;;;;;;7.90;7.50;;;;;;;11.56;93.30;101302.50;4994587;28;20430;-46
2022/06/01 00:52:35;;;;;;;7.50;7.00;;;;;;;11.55;93.04;101306.22;4994083;28;20991;-49
2022/06/01 00:55:11;;;;;;;7.40;7.00;;;;;;;11.54;92.92;101296.53;4994247;28;20473;-44
2022/06/01 00:57:41;;;;;;;7.50;7.10;;;;;;;11.54;93.48;101307.22;4993570;28;20465;-43
2022/06/01 01:00:13;;;;;;;7.23;6.90;;;;;;;11.55;93.64;101306.22;4994252;28;20434;-45
2022/06/01 01:02:41;;;;;;;8.23;7.73;;;;;;;11.54;93.33;101302.72;4994314;28;20437;-44
2022/06/01 01:05:13;;;;;;;8.13;7.73;;;;;;;11.54;93.59;101302.72;4994048;28;20932;-44
2022/06/01 01:07:42;;;;;;;8.63;8.13;;;;;;;11.55;93.81;101298.19;4993738;28;20476;-45
2022/06/01 01:10:13;;;;;;;8.60;8.10;;;;;;;11.54;93.58;101301.88;4993686;28;20434;-46
2022/06/01 01:12:58;;;;;;;8.00;7.60;;;;;;;11.52;93.56;101296.75;4993669;28;20967;-44
2022/06/01 01:15:34;;;;;;;8.33;7.83;;;;;;;11.51;93.90;101292.41;4993774;28;20924;-43
2022/06/01 01:18:07;;;;;;;9.07;8.57;;;;;;;11.51;94.23;101291.56;4993552;28;20496;-45
2022/06/01 01:20:36;;;;;;;8.27;7.73;;;;;;;11.49;94.16;101289.09;4993513;28;20438;-47
2022/06/01 01:23:14;;;;;;;8.43;7.93;;;;;;;11.49;94.16;101290.94;4993954;28;20796;-44
2022/06/01 01:25:43;;;;;;;8.37;7.97;;;;;;;11.48;94.47;101283.94;4993723;28;20434;-44
2022/06/01 01:28:11;;;;;;;8.47;7.83;;;;;;;11.47;94.28;101285.78;4993354;28;20442;-47
2022/06/01 01:30:49;;;;;;;8.70;8.20;;;;;;;11.47;94.36;101283.09;4993364;28;20438;-49
2022/06/01 01:33:19;;;;;;;8.80;8.10;;;;;;;11.47;94.60;101287.59;5012624;28;20568;-47
2022/06/01 01:35:49;;;;;;;8.53;8.03;;;;;;;11.45;94.37;101284.31;5012753;28;20453;-46
2022/06/01 01:38:23;;;;;;;8.63;8.00;;;;;;;11.42;94.37;101274.84;5013103;28;20429;-44
2022/06/01 01:41:02;;;;;;;8.93;8.20;;;;;;;11.42;94.61;101280.19;5012847;28;20433;-44
2022/06/01 01:43:33;;;;;;;9.07;8.67;;;;;;;11.38;94.66;101278.91;5013024;28;20429;-45
2022/06/01 01:46:01;;;;;;;7.70;7.33;;;;;;;11.35;94.67;101281.13;5012487;28;20453;-46
2022/06/01 01:48:30;;;;;;;8.63;8.13;;;;;;;11.32;94.64;101265.50;5013025;28;20844;-46
2022/06/01 01:50:57;;;;;;;9.97;9.37;;;;;;;11.27;94.75;101270.56;5012746;28;20433;-44
2022/06/01 01:53:25;;;;;;;9.40;8.80;;;;;;;11.22;94.67;101273.78;5012779;28;20483;-50
2022/06/01 01:56:04;;;;;;;8.17;7.73;;;;;;;11.19;94.78;101276.84;5012222;28;20453;-45
2022/06/01 01:58:43;;;;;;;9.20;8.70;;;;;;;11.12;94.59;101275.91;5013099;28;20440;-44
2022/06/01 02:01:16;;;;;;;8.33;7.83;;;;;;;11.07;94.60;101268.50;5012431;28;20988;-44
2022/06/01 02:03:50;;;;;;;9.10;8.40;;;;;;;11.02;94.74;101268.19;5012930;28;20414;-47
2022/06/01 02:06:29;;;;;;;8.87;8.37;;;;;;;10.98;94.84;101266.09;5011972;28;20982;-44
2022/06/01 02:09:02;;;;;;;9.23;8.73;;;;;;;10.95;94.97;101266.47;5012730;28;20436;-46
2022/06/01 02:14:29;;;;;;;9.10;8.60;;;;;;;10.87;95.09;101270.06;5012466;28;20994;-45
2022/06/01 02:17:01;;;;;;;10.27;9.67;;;;;;;10.83;95.38;101276.81;5011973;28;20472;-46
2022/06/01 02:19:34;;;;;;;10.00;8.90;;;;;;;10.79;95.40;101270.16;5012354;28;20436;-44
2022/06/01 02:22:01;;;;;;;9.10;8.60;;;;;;;10.78;95.63;101273.03;5012065;28;20437;-46
2022/06/01 02:24:30;;;;;;;9.77;9.17;;;;;;;10.76;95.71;101277.72;5011738;28;20459;-43
2022/06/01 02:27:00;;;;;;;8.90;8.40;;;;;;;10.78;96.00;101281.03;5011816;28;20465;-44
2022/06/01 02:29:33;;;;;;;10.90;10.00;;;;;;;10.78;96.15;101283.72;5012074;28;20441;-44
2022/06/01 02:32:02;;;;;;;10.60;9.90;;;;;;;10.77;96.17;101279.38;5012103;28;20438;-47
2022/06/01 02:34:31;;;;;;;9.87;9.17;;;;;;;10.78;96.47;101279.16;5012055;28;20495;-44
2022/06/01 02:37:00;;;;;;;10.97;10.17;;;;;;;10.77;96.49;101269.53;5011870;28;20465;-44
2022/06/01 02:39:30;;;;;;;11.17;10.37;;;;;;;10.81;96.80;101262.00;5012182;28;20437;-46
2022/06/01 02:44:56;;;;;;;10.07;9.37;;;;;;;10.84;97.10;101257.09;5007155;28;20492;-48
2022/06/01 02:47:26;;;;;;;10.70;9.97;;;;;;;10.86;96.98;101264.94;5011511;28;20472;-46
2022/06/01 02:49:53;;;;;;;9.70;9.10;;;;;;;10.87;96.88;101255.91;5011937;28;20448;-49
2022/06/01 02:52:21;;;;;;;9.70;9.10;;;;;;;10.86;97.00;101270.25;5011723;28;20433;-45
2022/06/01 02:54:49;;;;;;;10.23;9.63;;;;;;;10.84;96.82;101269.63;5012044;28;20512;-49
2022/06/01 02:57:18;;;;;;;10.67;9.97;;;;;;;10.82;96.56;101266.31;5011428;28;20477;-46
2022/06/01 02:59:46;;;;;;;9.80;9.10;;;;;;;10.80;96.68;101265.66;5011852;28;20440;-45
2022/06/01 03:02:14;;;;;;;10.67;9.80;;;;;;;10.75;96.56;101274.22;5011887;28;20452;-44
2022/06/01 03:04:44;;;;;;;8.93;8.43;;;;;;;10.73;96.35;101273.56;5011747;28;20429;-47
2022/06/01 03:07:12;;;;;;;10.70;10.00;;;;;;;10.70;96.40;101268.59;5011768;28;20508;-44
2022/06/01 03:09:41;;;;;;;10.23;9.53;;;;;;;10.70;96.49;101267.78;5011968;28;20993;-44
2022/06/01 03:12:09;;;;;;;11.10;10.20;;;;;;;10.71;96.83;101270.28;5011624;28;20437;-48
2022/06/01 03:14:38;;;;;;;10.07;9.40;;;;;;;10.71;96.79;101270.28;5011704;28;20481;-44
2022/06/01 03:17:07;;;;;;;9.17;8.57;;;;;;;10.73;97.00;101259.41;5011360;28;20472;-52
2022/06/01 03:19:34;;;;;;;9.00;8.40;;;;;;;10.76;97.05;101256.38;5011935;28;20429;-44
2022/06/01 03:22:02;;;;;;;9.47;8.80;;;;;;;10.79;97.13;101250.66;5011437;28;20441;-47
2022/06/01 03:24:30;;;;;;;9.70;8.90;;;;;;;10.85;97.17;101256.09;5011731;28;20428;-44
2022/06/01 03:26:58;;;;;;;10.13;9.60;;;;;;;10.91;97.16;101254.50;5011204;28;20857;-48
2022/06/01 03:29:25;;;;;;;9.83;9.23;;;;;;;10.97;97.38;101257.28;5011617;28;20807;-45
2022/06/01 03:31:55;;;;;;;10.43;9.73;;;;;;;11.02;97.29;101254.84;5011703;28;20451;-46
2022/06/01 03:34:25;;;;;;;11.07;10.30;;;;;;;11.10;97.07;101246.75;5011665;28;20836;-46
2022/06/01 03:36:53;;;;;;;9.40;8.90;;;;;;;11.16;97.54;101255.88;5014708;28;20465;-45
2022/06/01 03:39:20;;;;;;;10.13;9.53;;;;;;;11.20;97.07;101254.44;5015457;28;20440;-43
2022/06/01 03:41:48;;;;;;;10.60;9.70;;;;;;;11.26;97.05;101253.69;5015054;28;20441;-43
2022/06/01 03:47:04;;;;;;;10.20;9.60;;;;;;;11.36;97.05;101256.06;5014211;28;20479;-45
2022/06/01 03:49:32;;;;;;;10.60;9.80;;;;;;;11.41;96.75;101253.69;5015194;28;20439;-45
2022/06/01 03:51:59;;;;;;;10.97;10.17;;;;;;;11.44;96.78;101256.78;5014862;28;20436;-43
2022/06/01 03:54:27;;;;;;;11.50;10.90;;;;;;;11.45;96.57;101255.78;5014869;28;20477;-44
2022/06/01 03:56:55;;;;;;;9.50;9.00;;;;;;;11.49;96.72;101262.41;5014322;28;20475;-44
2022/06/01 03:59:28;;;;;;;12.23;10.93;;;;;;;11.52;96.60;101258.50;5015106;28;20440;-43
2022/06/01 04:01:55;;;;;;;10.00;9.50;;;;;;;11.56;97.07;101260.59;5014783;28;20437;-46
2022/06/01 04:04:24;;;;;;;11.30;10.60;;;;;;;11.61;96.83;101254.69;5014966;28;20432;-45
2022/06/01 04:06:52;;;;;;;11.43;10.67;;;;;;;11.65;96.39;101245.25;5014304;28;20475;-43
2022/06/01 04:09:19;;;;;;;12.13;11.20;;;;;;;11.70;96.49;101252.75;5014494;28;20437;-47
2022/06/01 04:11:47;;;;;;;10.20;9.60;;;;;;;11.74;96.71;101248.69;5014910;28;20488;-51
2022/06/01 04:14:15;;;;;;;10.50;9.70;;;;;;;11.75;96.54;101258.34;5014621;28;20480;-52
2022/06/01 04:16:42;;;;;;;10.70;10.00;;;;;;;11.78;96.05;101253.44;5014060;28;20552;-51
2022/06/01 04:19:10;;;;;;;10.80;10.10;;;;;;;11.81;96.28;101253.06;5014552;28;20442;-49
2022/06/01 04:21:42;;;;;;;11.90;11.00;;;;;;;11.84;96.31;101262.53;5014099;28;20445;-45
2022/06/01 04:24:13;;;;;;;11.37;10.67;;;;;;;11.87;96.00;101257.63;5014410;28;20429;-44
2022/06/01 04:26:41;;;;;;;10.47;9.90;;;;;;;11.95;96.21;101262.00;5013783;28;20990;-49
2022/06/01 04:29:09;;;;;;;11.57;10.80;;;;;;;11.98;96.08;101254.44;5014460;28;20440;-46
2022/06/01 04:31:37;;;;;;;12.00;11.23;;;;;;;12.05;96.29;101257.16;5013775;28;20432;-44
2022/06/01 04:34:05;;;;;;;12.27;11.37;;;;;;;12.09;96.45;101259.28;5014051;28;20854;-46
2022/06/01 04:36:33;;;;;;;9.40;8.90;;;;;;;12.15;95.94;101260.34;5013443;28;20820;-47
2022/06/01 04:39:03;;;;;;;10.60;9.90;;;;;;;12.21;95.85;101254.22;5014273;28;20437;-44
2022/06/01 04:41:31;;;;;;;10.73;10.03;;;;;;;12.27;95.81;101248.09;5013920;28;20446;-47
2022/06/01 04:43:58;;;;;;;12.37;9.90;;;;;;;12.37;95.78;101247.72;5014081;28;20460;-45
2022/06/01 04:46:26;;;;;;;9.63;9.03;;;;;;;12.47;95.65;101253.56;5012955;28;20477;-43
2022/06/01 04:48:54;;;;;;;9.80;9.10;;;;;;;12.55;95.19;101256.91;5013681;28;20469;-47
2022/06/01 04:51:22;;;;;;;10.10;9.50;;;;;;;12.65;95.12;101253.88;5013803;28;20433;-44
2022/06/01 04:53:49;;;;;;;9.60;9.10;;;;;;;12.77;94.90;101253.13;5013712;28;20441;-44
2022/06/01 04:56:18;;;;;;;10.10;9.47;;;;;;;12.90;94.59;101246.19;5013346;28;20469;-43
2022/06/01 04:58:46;;;;;;;10.07;9.37;;;;;;;13.04;94.67;101246.03;5013822;28;20460;-49
2022/06/01 05:01:14;;;;;;;10.70;9.30;;;;;;;14.80;97.38;101240.97;5013607;28;20524;-43
2022/06/01 05:03:41;;;;;;;8.17;7.57;;;;;;;16.26;96.90;101239.84;5013628;28;20511;-44
2022/06/01 05:06:09;;;;;;;7.53;7.03;;;;;;;17.60;91.93;101240.50;5013195;28;20464;-47
2022/06/01 05:08:37;;;;;;;6.70;6.20;;;;;;;18.82;80.05;101225.31;5013613;28;20443;-51
2022/06/01 05:11:05;;;;;;;7.10;6.60;;;;;;;19.89;69.21;101229.78;5013191;28;20439;-46
2022/06/01 05:13:34;;;;;;;7.03;6.53;;;;;;;20.80;67.00;101229.22;5013315;28;20436;-47
2022/06/01 05:16:02;;;;;;;6.97;6.60;;;;;;;21.75;63.19;101235.94;5012679;28;20483;-49
2022/06/01 05:18:31;;;;;;;6.00;5.50;;;;;;;22.48;57.80;101216.97;5013515;28;20515;-51
2022/06/01 05:20:58;;;;;;;6.00;5.60;;;;;;;23.25;55.65;101231.69;5013177;28;20437;-51
2022/06/01 05:23:27;;;;;;;6.20;5.73;;;;;;;23.64;52.27;101224.72;5013207;28;20897;-48
2022/06/01 05:25:56;;;;;;;7.00;6.40;;;;;;;24.10;51.88;101229.09;5012799;28;20449;-52
2022/06/01 05:28:27;;;;;;;5.03;4.83;;;;;;;24.89;48.22;101219.34;5013009;28;20428;-49
2022/06/01 05:30:57;;;;;;;5.10;4.70;;;;;;;25.33;46.88;101224.88;5012767;28;20435;-50
2022/06/01 05:33:25;;;;;;;5.00;4.80;;;;;;;25.64;47.21;101224.38;5005033;28;20428;-51
2022/06/01 05:35:53;;;;;;;5.50;5.00;;;;;;;25.80;40.10;101217.72;5012445;28;20967;-48
2022/06/01 05:38:21;;;;;;;4.63;4.33;;;;;;;26.13;42.66;101226.16;5013030;28;20918;-53
2022/06/01 05:40:49;;;;;;;4.20;4.00;;;;;;;26.52;42.81;101229.59;5012732;28;20439;-49
2022/06/01 05:43:21;;;;;;;4.53;4.13;;;;;;;26.68;41.58;101225.56;5013117;28;20454;-49
2022/06/01 05:45:49;;;;;;;4.70;4.50;;;;;;;26.49;39.55;101224.72;5012450;28;20449;-53
2022/06/01 05:48:19;;;;;;;4.80;4.50;;;;;;;26.31;37.59;101228.19;5012955;28;20428;-45
2022/06/01 05:50:47;;;;;;;4.37;4.07;;;;;;;26.18;41.61;101228.88;5012679;28;20475;-49
2022/06/01 05:53:16;;;;;;;4.60;4.40;;;;;;;26.56;40.53;101233.38;5012801;28;20432;-50
2022/06/01 05:55:43;;;;;;;4.60;4.40;;;;;;;26.32;37.17;101236.09;5012422;28;20480;-51
2022/06/01 05:58:16;;;;;;;3.87;3.67;;;;;;;25.94;39.45;101244.34;5012109;28;20455;-51
2022/06/01 06:00:45;;;;;;;4.20;4.00;;;;;;;26.10;39.93;101240.41;5012306;28;20429;-48
2022/06/01 06:03:13;;;;;;;4.70;4.40;;;;;;;26.64;39.25;101243.66;5012777;28;20431;-45
2022/06/01 06:08:36;;;;;;;4.93;4.63;;;;;;;27.15;38.61;101232.91;5012477;28;20435;-50
2022/06/01 06:11:11;;;;;;;4.40;4.20;;;;;;;27.31;36.25;101237.09;5012501;28;20443;-51
2022/06/01 06:13:39;;;;;;;4.37;4.17;;;;;;;27.34;36.08;101236.50;5012362;28;20799;-48
2022/06/01 06:16:06;;;;;;;3.97;3.77;;;;;;;27.64;37.16;101240.72;5011742;28;20464;-46
2022/06/01 06:18:34;;;;;;;4.57;4.37;;;;;;;27.04;35.00;101238.84;5012197;28;20432;-50
2022/06/01 06:21:04;;;;;;;4.33;4.10;;;;;;;26.40;36.26;101245.59;5012304;28;20439;-48
2022/06/01 06:23:33;;;;;;;4.93;4.53;;;;;;;26.57;37.07;101247.88;5012636;28;20835;-53
2022/06/01 06:26:01;;;;;;;4.50;4.20;;;;;;;26.12;39.25;101247.19;5011733;28;20448;-51
2022/06/01 06:28:29;;;;;;;4.67;4.47;;;;;;;26.10;38.06;101240.41;5012201;28;20429;-51
2022/06/01 06:30:56;;;;;;;4.27;4.07;;;;;;;25.41;38.17;101246.91;5011762;28;20428;-45
2022/06/01 06:33:24;;;;;;;4.30;4.10;;;;;;;23.85;41.22;101255.50;5012290;28;20435;-50
2022/06/01 06:36:02;;;;;;;4.17;3.97;;;;;;;23.87;40.77;101243.22;5011385;28;20477;-50
2022/06/01 06:38:32;;;;;;;5.07;4.70;;;;;;;24.10;41.18;101248.16;5012258;28;20512;-49
2022/06/01 06:41:01;;;;;;;4.90;4.60;;;;;;;23.58;40.98;101251.13;5011992;28;20443;-48
2022/06/01 06:43:31;;;;;;;4.23;4.03;;;;;;;23.61;42.19;101245.13;5011847;28;20811;-47
2022/06/01 06:46:01;;;;;;;4.00;3.70;;;;;;;24.09;42.92;101260.13;5011449;28;20444;-51
2022/06/01 06:48:28;;;;;;;3.53;3.43;;;;;;;24.52;39.81;101256.00;5012094;28;20425;-51
2022/06/01 06:50:56;;;;;;;4.40;4.20;;;;;;;24.04;40.89;101262.84;5011757;28;20440;-51
2022/06/01 06:53:24;;;;;;;5.10;4.80;;;;;;;23.47;41.50;101262.28;5011936;28;20432;-51
2022/06/01 06:55:54;;;;;;;3.53;3.33;;;;;;;23.63;41.81;101259.28;5011128;28;20475;-47
2022/06/01 06:58:22;;;;;;;4.00;3.87;;;;;;;23.47;39.72;101257.66;5011772;28;20934;-48
2022/06/01 07:00:50;;;;;;;5.27;4.60;;;;;;;23.13;40.80;101253.72;5011690;28;20945;-48
2022/06/01 07:03:18;;;;;;;4.60;4.40;;;;;;;23.13;40.47;101261.88;5011744;28;20935;-50
2022/06/01 07:08:31;;;;;;;4.47;4.27;;;;;;;23.81;39.86;101262.56;5011645;28;20803;-47
2022/06/01 07:11:01;;;;;;;4.50;4.30;;;;;;;23.23;40.32;101259.19;5014165;28;20438;-46
2022/06/01 07:13:29;;;;;;;4.60;4.30;;;;;;;23.50;42.36;101261.72;5015778;28;20452;-47
2022/06/01 07:16:01;;;;;;;4.83;4.40;;;;;;;23.46;39.91;101261.44;5014931;28;20484;-50
2022/06/01 07:18:30;;;;;;;4.00;3.80;;;;;;;23.75;41.79;101258.19;5015654;28;20567;-46
2022/06/01 07:20:58;;;;;;;4.60;4.30;;;;;;;23.34;40.22;101265.47;5015261;28;20944;-49
2022/06/01 07:23:33;;;;;;;4.67;4.43;;;;;;;23.34;41.86;101266.28;5015528;28;20478;-45
2022/06/01 07:26:02;;;;;;;4.70;4.40;;;;;;;22.58;43.33;101262.38;5015094;28;20452;-49
2022/06/01 07:28:29;;;;;;;5.67;5.20;;;;;;;22.44;43.80;101267.47;5015378;28;20425;-47
2022/06/01 07:30:57;;;;;;;4.63;4.43;;;;;;;22.55;43.79;101263.72;5015192;28;20433;-45
2022/06/01 07:33:26;;;;;;;3.80;3.60;;;;;;;23.28;42.87;101259.19;5015027;28;20795;-46
2022/06/01 07:35:54;;;;;;;3.40;3.30;;;;;;;23.77;40.21;101254.16;5014895;28;20492;-45
2022/06/01 07:43:58;;;;;;;3.43;3.33;;;;;;;23.48;41.07;101267.44;5015160;28;20433;-45
2022/06/01 07:46:26;;;;;;;3.77;3.57;;;;;;;24.12;39.55;101259.63;5014739;28;20496;-45
2022/06/01 07:48:54;;;;;;;3.10;3.00;;;;;;;23.79;37.05;101245.69;5015471;28;20794;-45
2022/06/01 07:51:41;;;;;;;3.00;2.90;;;;;;;23.22;39.14;101251.28;5014775;28;20934;-47
2022/06/01 07:54:10;;;;;;;4.13;3.93;;;;;;;22.77;41.76;101254.63;5015021;28;20869;-47
2022/06/01 07:56:39;;;;;;;3.90;3.80;;;;;;;22.48;41.85;101257.72;5014475;28;20460;-45
2022/06/01 07:59:08;;;;;;;3.33;3.23;;;;;;;22.73;41.76;101259.00;5015013;28;20440;-48
2022/06/01 08:01:36;;;;;;;3.27;3.13;;;;;;;22.73;40.98;101259.00;5014670;28;20436;-46
2022/06/01 08:04:06;;;;;;;4.33;4.13;;;;;;;22.93;39.67;101250.91;5014875;28;20486;-45
2022/06/01 08:06:36;;;;;;;3.80;3.50;;;;;;;22.87;39.98;101249.25;5014302;28;21126;-50
2022/06/01 08:09:22;;;;;;;3.97;3.87;;;;;;;21.92;41.59;101252.97;5015050;28;20436;-46
2022/06/01 08:14:36;;;;;;;3.67;3.57;;;;;;;19.93;47.48;101252.56;5014737;28;20433;-49
2022/06/01 08:17:04;;;;;;;5.20;4.80;;;;;;;20.56;45.44;101243.25;5013814;28;20484;-47
2022/06/01 08:19:32;;;;;;;4.70;4.50;;;;;;;21.23;44.63;101239.25;5014535;28;20436;-47
2022/06/01 08:21:59;;;;;;;4.47;4.27;;;;;;;21.71;43.92;101241.09;5013239;28;20957;-48
2022/06/01 08:24:27;;;;;;;4.00;3.80;;;;;;;22.43;42.95;101243.31;5014445;28;20957;-48
2022/06/01 08:26:56;;;;;;;5.00;4.70;;;;;;;22.79;41.01;101239.69;5013956;28;20465;-47
2022/06/01 08:29:24;;;;;;;4.57;4.37;;;;;;;23.07;39.70;101236.56;5014389;28;20433;-45
2022/06/01 08:31:51;;;;;;;4.33;4.10;;;;;;;22.79;41.20;101230.75;5013842;28;20437;-49
2022/06/01 08:34:19;;;;;;;3.83;3.63;;;;;;;22.88;41.65;101229.16;5014354;28;20424;-45
2022/06/01 08:36:47;;;;;;;5.00;4.70;;;;;;;22.30;42.92;101228.28;5013582;28;20484;-46
2022/06/01 08:39:15;;;;;;;5.07;4.77;;;;;;;21.98;42.55;101231.00;5014128;28;20436;-48
2022/06/01 08:41:42;;;;;;;4.50;4.30;;;;;;;21.44;43.51;101230.22;5014006;28;20964;-48
2022/06/01 08:44:25;;;;;;;4.20;4.00;;;;;;;20.99;45.07;101237.88;5014082;28;20429;-49
2022/06/01 08:46:56;;;;;;;4.90;4.20;;;;;;;21.16;44.08;101235.09;5013491;28;20559;-48
2022/06/01 08:49:28;;;;;;;4.73;4.53;;;;;;;20.38;45.65;101219.97;5014073;28;20432;-47
2022/06/01 08:51:56;;;;;;;4.03;3.90;;;;;;;20.19;47.41;101224.03;5013748;28;20464;-47
2022/06/01 08:54:24;;;;;;;4.90;4.60;;;;;;;20.08;47.60;101225.72;5013854;28;20435;-47
2022/06/01 08:56:54;;;;;;;4.40;4.20;;;;;;;19.80;47.74;101240.16;5013047;28;20480;-45
2022/06/01 08:59:31;;;;;;;4.07;3.87;;;;;;;19.54;48.93;101235.38;5013862;28;20432;-45
2022/06/01 09:02:09;;;;;;;4.70;4.50;;;;;;;19.52;48.84;101226.72;5013687;28;20437;-44
2022/06/01 09:04:46;;;;;;;4.50;4.30;;;;;;;19.21;50.05;101232.56;5013824;28;20433;-47
2022/06/01 09:07:23;;;;;;;4.70;4.27;;;;;;;19.05;49.91;101223.38;5013215;28;20464;-49
2022/06/01 09:10:06;;;;;;;4.93;4.73;;;;;;;19.04;49.22;101227.13;5013705;28;20428;-51
2022/06/01 09:12:35;;;;;;;4.37;4.17;;;;;;;18.86;49.42;101234.56;5013537;28;20463;-46
2022/06/01 09:15:13;;;;;;;5.83;5.53;;;;;;;18.43;51.42;101230.38;5013456;28;20798;-47
2022/06/01 09:17:43;;;;;;;5.53;5.03;;;;;;;18.34;50.09;101228.31;5012696;28;20845;-45
2022/06/01 09:23:00;;;;;;;5.50;5.20;;;;;;;17.41;55.05;101237.00;5013452;28;20440;-47
2022/06/01 09:25:34;;;;;;;5.07;4.77;;;;;;;17.30;54.86;101240.50;5013281;28;20439;-47
2022/06/01 09:28:05;;;;;;;4.93;4.73;;;;;;;17.12;53.51;101245.94;5012632;28;21024;-45
2022/06/01 09:30:36;;;;;;;5.60;5.30;;;;;;;16.98;53.60;101239.91;5013165;28;20432;-44
2022/06/01 09:33:13;;;;;;;4.83;4.43;;;;;;;16.91;53.24;101247.22;5013198;28;20441;-46
2022/06/01 09:35:46;;;;;;;4.33;4.13;;;;;;;16.50;53.80;101241.66;5013074;28;20524;-45
2022/06/01 09:38:20;;;;;;;5.93;5.50;;;;;;;16.26;57.01;101255.97;5012839;28;20476;-47
2022/06/01 09:41:02;;;;;;;24.60;9.47;;;;;;;15.66;64.09;101268.25;5013151;28;20439;-47
2022/06/01 09:43:30;;;;;;;17.87;8.40;;;;;;;14.72;64.66;101263.50;5012960;28;20439;-47
2022/06/01 09:45:59;;;;;;;17.60;7.60;;;;;;;14.11;62.35;101272.84;5012803;28;20490;-48
2022/06/01 09:48:29;;;;;;;12.53;7.23;;;;;;;13.79;64.35;101277.16;5013054;28;20447;-44
2022/06/01 09:51:02;;;;;;;21.30;8.87;;;;;;;13.56;69.54;101274.03;5012727;28;20430;-47
2022/06/01 09:53:36;;;;;;;18.03;14.40;;;;;;;13.20;69.29;101279.72;5012973;28;20435;-46
2022/06/01 09:56:05;;;;;;;21.20;17.37;;;;;;;13.14;68.55;101283.19;5012212;28;21476;-46
2022/06/01 10:06:56;;;;;;;11.70;11.20;;;;;;;13.07;69.05;101280.44;5012670;28;20475;-46
2022/06/01 10:09:26;;;;;;;10.53;10.07;;;;;;;13.17;69.75;101282.78;5013315;28;20433;-48
2022/06/01 10:11:55;;;;;;;8.80;8.50;;;;;;;13.11;71.42;101289.75;5012536;28;20433;-51
2022/06/01 10:14:25;;;;;;;9.70;9.10;;;;;;;13.26;73.54;101278.91;5012313;28;20440;-49
2022/06/01 10:17:14;;;;;;;9.40;8.80;;;;;;;13.51;74.98;101281.84;5011939;28;20473;-47
2022/06/01 10:19:47;;;;;;;9.17;8.77;;;;;;;13.77;76.15;101280.03;5012434;28;20439;-48
2022/06/01 10:22:23;;;;;;;6.50;6.20;;;;;;;14.07;76.05;101269.75;5012012;28;20440;-50
2022/06/01 10:24:55;;;;;;;7.57;7.27;;;;;;;14.48;77.14;101266.03;5012746;28;20432;-49
2022/06/01 10:27:28;;;;;;;6.37;6.10;;;;;;;14.87;76.43;101265.94;5011692;28;20480;-48
2022/06/01 10:30:06;;;;;;;5.47;5.20;;;;;;;15.06;72.97;101264.19;5012244;28;20429;-50
2022/06/01 10:32:47;;;;;;;6.17;5.77;;;;;;;15.34;69.78;101262.84;5003703;28;20441;-47
2022/06/01 10:35:26;;;;;;;6.43;5.90;;;;;;;15.65;69.60;101261.25;5012313;28;20429;-51
2022/06/01 10:38:02;;;;;;;5.53;5.33;;;;;;;15.91;68.37;101269.94;5011687;28;20480;-48
2022/06/01 10:40:37;;;;;;;6.93;6.60;;;;;;;16.02;68.47;101279.16;5012103;28;20437;-50
2022/06/01 10:43:17;;;;;;;6.20;5.90;;;;;;;15.99;66.97;101276.91;5011951;28;20446;-47
2022/06/01 10:45:49;;;;;;;5.83;5.63;;;;;;;16.23;65.55;101273.41;5011149;28;20432;-47
2022/06/01 10:48:28;;;;;;;6.40;5.93;;;;;;;16.34;62.81;101269.13;5012053;28;20780;-48
2022/06/01 10:51:04;;;;;;;6.80;6.30;;;;;;;16.35;65.88;101273.50;5011877;28;20934;-51
2022/06/01 10:53:49;;;;;;;6.70;6.40;;;;;;;16.58;66.52;101269.16;5012020;28;20491;-50
2022/06/01 10:56:21;;;;;;;6.53;6.23;;;;;;;16.62;64.21;101282.16;5011623;28;20461;-48
2022/06/01 10:58:51;;;;;;;6.73;6.43;;;;;;;16.75;61.55;101287.41;5011970;28;20981;-50
2022/06/01 11:01:31;;;;;;;6.67;6.37;;;;;;;16.81;61.93;101281.97;5012057;28;20437;-50
2022/06/01 11:04:30;;;;;;;6.30;6.10;;;;;;;16.94;61.87;101292.56;5011746;28;20547;-47
2022/06/01 11:07:14;;;;;;;6.17;5.80;;;;;;;16.80;63.72;101301.03;5011677;28;20464;-50
2022/06/01 11:09:56;;;;;;;7.13;6.63;;;;;;;17.03;63.89;101301.19;5011973;28;20720;-45
2022/06/01 11:12:36;;;;;;;6.33;6.13;;;;;;;16.76;62.02;101307.91;5011492;28;20433;-48
2022/06/01 11:15:17;;;;;;;5.70;5.50;;;;;;;16.69;63.50;101309.84;5011805;28;20431;-47
2022/06/01 11:17:48;;;;;;;5.97;5.77;;;;;;;16.82;62.83;101320.47;5011222;28;20515;-46
2022/06/01 11:20:35;;;;;;;5.13;4.93;;;;;;;17.15;64.30;101313.69;5011568;28;20436;-45
2022/06/01 11:23:16;;;;;;;5.70;5.50;;;;;;;17.10;61.10;101321.63;5011803;28;20441;-46
2022/06/01 11:26:00;;;;;;;5.40;5.10;;;;;;;17.12;61.36;101306.03;5011142;28;20455;-46
2022/06/01 11:28:50;;;;;;;5.77;5.57;;;;;;;17.06;60.09;101298.84;5011683;28;20435;-45
2022/06/01 11:31:20;;;;;;;5.90;5.70;;;;;;;16.86;63.25;101294.75;5011661;28;20437;-47
2022/06/01 11:33:54;;;;;;;6.07;5.73;;;;;;;16.80;64.05;101293.78;5011788;28;20427;-47
2022/06/01 11:36:35;;;;;;;6.03;5.50;;;;;;;16.66;63.95;101294.97;5011195;28;20473;-47
2022/06/01 11:39:15;;;;;;;5.43;5.13;;;;;;;16.73;63.26;101295.72;5011643;28;21109;-46
2022/06/01 11:41:54;;;;;;;5.10;4.80;;;;;;;16.81;62.68;101298.13;5011268;28;20432;-44
2022/06/01 11:44:28;;;;;;;4.80;4.50;;;;;;;17.10;64.32;101297.38;5011633;28;20450;-45
2022/06/01 11:47:00;;;;;;;5.67;5.30;;;;;;;17.15;63.22;101292.13;5010923;28;20483;-44
2022/06/01 11:49:34;;;;;;;5.17;4.77;;;;;;;17.62;61.51;101292.38;5011422;28;20429;-44
2022/06/01 11:52:31;;;;;;;5.73;5.43;;;;;;;18.02;58.21;101285.31;5011407;28;20441;-46
2022/06/01 11:55:24;;;;;;;5.70;5.50;;;;;;;18.51;59.86;101288.66;5002944;28;20441;-46
2022/06/01 11:57:54;;;;;;;4.80;4.60;;;;;;;18.85;60.10;101284.25;5012923;28;20472;-45
2022/06/01 12:00:32;;;;;;;5.23;5.03;;;;;;;19.02;56.91;101279.78;5014873;28;20439;-45
2022/06/01 12:03:22;;;;;;;5.57;5.37;;;;;;;19.43;58.88;101282.25;5014784;28;21011;-47
2022/06/01 12:06:01;;;;;;;5.50;5.30;;;;;;;19.40;53.68;101280.03;5014184;28;20527;-48
2022/06/01 12:08:37;;;;;;;5.50;5.20;;;;;;;19.10;53.25;101295.63;5014638;28;20435;-45
2022/06/01 12:11:07;;;;;;;5.23;5.07;;;;;;;18.61;54.60;101289.69;5014710;28;20425;-47
2022/06/01 12:13:52;;;;;;;5.60;5.40;;;;;;;18.77;57.54;101294.41;5014578;28;20432;-53